createdAt,value
2023-01-04T00:01:18.110Z,7.23
2023-01-04T00:03:45.482Z,9.40
2023-01-04T00:06:14.941Z,7.17
2023-01-04T00:08:42.581Z,7.77
2023-01-04T00:11:18.331Z,7.17
2023-01-04T00:13:46.472Z,7.20
2023-01-04T00:16:16.874Z,7.90
2023-01-04T00:18:44.107Z,7.70
2023-01-04T00:21:22.732Z,9.60
2023-01-04T00:23:51.784Z,10.17
2023-01-04T00:26:23.957Z,9.03
2023-01-04T00:29:05.519Z,8.27
2023-01-04T00:31:33.304Z,9.10
2023-01-04T00:34:02.466Z,11.33
2023-01-04T00:36:29.806Z,9.20
2023-01-04T00:39:09.211Z,8.80
2023-01-04T00:42:00.961Z,9.23
2023-01-04T00:44:29.121Z,12.50
2023-01-04T00:46:56.158Z,8.47
2023-01-04T00:49:23.213Z,8.50
2023-01-04T00:51:50.166Z,9.57
2023-01-04T00:54:17.800Z,11.57
2023-01-04T00:56:44.808Z,11.27
2023-01-04T00:59:14.036Z,9.10
2023-01-04T01:01:42.100Z,9.30
2023-01-04T01:04:12.183Z,10.20
2023-01-04T01:06:39.424Z,9.70
2023-01-04T01:09:06.976Z,9.37
2023-01-04T01:11:36.787Z,11.40
2023-01-04T01:14:03.987Z,10.97
2023-01-04T01:16:53.807Z,13.20
2023-01-04T01:19:18.337Z,11.07
2023-01-04T01:21:45.212Z,11.67
2023-01-04T01:24:17.039Z,12.10
2023-01-04T01:26:44.004Z,11.23
2023-01-04T01:29:10.995Z,14.73
2023-01-04T01:31:38.004Z,12.70
2023-01-04T01:34:05.024Z,13.90
2023-01-04T01:36:32.007Z,15.43
2023-01-04T01:38:59.565Z,14.33
2023-01-04T01:41:29.148Z,13.10
2023-01-04T01:43:56.077Z,14.37
2023-01-04T01:46:28.533Z,15.57
2023-01-04T01:49:04.057Z,15.40
2023-01-04T01:51:33.154Z,16.60
2023-01-04T01:54:10.683Z,15.73
2023-01-04T01:56:39.735Z,15.60
2023-01-04T01:59:09.098Z,18.30
2023-01-04T02:01:36.620Z,15.73
2023-01-04T02:04:05.517Z,15.17
2023-01-04T02:06:39.711Z,16.73
2023-01-04T02:09:06.592Z,14.80
2023-01-04T02:11:33.785Z,21.43
2023-01-04T02:14:22.142Z,17.07
2023-01-04T02:17:00.735Z,19.80
2023-01-04T02:19:57.676Z,16.20
2023-01-04T02:22:58.448Z,15.23
2023-01-04T02:25:31.375Z,17.60
2023-01-04T02:27:58.205Z,16.53
2023-01-04T02:30:27.837Z,21.53
2023-01-04T02:33:13.508Z,19.63
2023-01-04T02:35:55.318Z,15.00
2023-01-04T02:38:28.382Z,16.03
2023-01-04T02:41:34.151Z,15.93
2023-01-04T02:44:33.787Z,17.70
2023-01-04T02:47:06.419Z,14.77
2023-01-04T02:49:51.872Z,15.23
2023-01-04T02:52:20.273Z,13.10
2023-01-04T02:54:49.725Z,16.07
2023-01-04T02:57:37.415Z,17.80
2023-01-04T03:00:21.896Z,14.10
2023-01-04T03:03:19.387Z,14.60
2023-01-04T03:06:16.542Z,12.83
2023-01-04T03:08:49.467Z,14.33
2023-01-04T03:11:36.422Z,14.80
2023-01-04T03:14:31.932Z,13.07
2023-01-04T03:17:05.597Z,13.70
2023-01-04T03:19:54.367Z,14.13
2023-01-04T03:22:54.720Z,10.50
2023-01-04T03:25:46.798Z,11.10
2023-01-04T03:28:34.171Z,13.13
2023-01-04T03:31:50.368Z,11.00
2023-01-04T03:34:36.208Z,10.63
2023-01-04T03:37:14.926Z,9.97
2023-01-04T03:40:10.715Z,8.90
2023-01-04T03:43:21.526Z,10.20
2023-01-04T03:46:15.854Z,8.40
2023-01-04T03:48:56.840Z,8.70
2023-01-04T03:51:28.281Z,9.60
2023-01-04T03:54:17.486Z,11.33
2023-01-04T03:56:45.936Z,8.33
2023-01-04T03:59:13.682Z,12.20
2023-01-04T04:01:43.161Z,8.27
2023-01-04T04:04:29.835Z,12.27
2023-01-04T04:07:15.476Z,10.20
2023-01-04T04:09:42.370Z,12.73
2023-01-04T04:12:09.402Z,8.97
2023-01-04T04:14:36.317Z,8.00
2023-01-04T04:17:03.367Z,10.17
2023-01-04T04:19:30.324Z,8.37
2023-01-04T04:21:57.228Z,7.80
2023-01-04T04:24:26.104Z,9.00
2023-01-04T04:26:57.349Z,7.83
2023-01-04T04:29:25.340Z,8.40
2023-01-04T04:31:52.699Z,7.77
2023-01-04T04:34:19.585Z,7.73
2023-01-04T04:36:47.128Z,10.33
2023-01-04T04:39:14.129Z,8.00
2023-01-04T04:41:41.929Z,7.53
2023-01-04T04:44:14.539Z,8.00
2023-01-04T04:46:42.149Z,8.13
2023-01-04T04:49:10.072Z,7.97
2023-01-04T04:51:38.133Z,7.70
2023-01-04T04:54:05.282Z,8.33
2023-01-04T04:56:32.479Z,9.47
2023-01-04T04:58:59.570Z,8.50
2023-01-04T05:01:26.519Z,7.63
2023-01-04T05:03:53.472Z,10.13
2023-01-04T05:06:20.551Z,9.00
2023-01-04T05:08:47.482Z,7.70
2023-01-04T05:11:14.508Z,7.07
2023-01-04T05:13:41.971Z,8.10
2023-01-04T05:16:10.182Z,7.30
2023-01-04T05:18:37.268Z,6.67
2023-01-04T05:21:04.229Z,6.60
2023-01-04T05:23:31.098Z,6.80
2023-01-04T05:26:01.258Z,8.47
2023-01-04T05:28:28.169Z,6.63
2023-01-04T05:30:55.910Z,7.20
2023-01-04T05:33:25.874Z,6.73
2023-01-04T05:35:54.065Z,6.20
2023-01-04T05:38:22.040Z,5.43
2023-01-04T05:40:49.708Z,6.10
2023-01-04T05:43:18.300Z,6.50
2023-01-04T05:45:49.104Z,11.03
2023-01-04T05:48:16.386Z,5.13
2023-01-04T05:50:44.371Z,5.93
2023-01-04T05:53:11.649Z,5.27
2023-01-04T05:55:38.824Z,4.77
2023-01-04T05:58:05.784Z,4.23
2023-01-04T06:00:32.679Z,4.23
2023-01-04T06:02:59.607Z,4.50
2023-01-04T06:05:26.952Z,6.17
2023-01-04T06:07:54.095Z,4.30
2023-01-04T06:10:21.475Z,4.50
2023-01-04T06:12:49.025Z,4.00
2023-01-04T06:15:16.098Z,4.33
2023-01-04T06:17:42.955Z,4.40
2023-01-04T06:20:11.199Z,4.70
2023-01-04T06:22:40.702Z,4.13
2023-01-04T06:25:08.911Z,5.30
2023-01-04T06:27:35.939Z,4.97
2023-01-04T06:30:02.910Z,8.13
2023-01-04T06:32:29.754Z,5.20
2023-01-04T06:34:56.698Z,6.60
2023-01-04T06:37:23.684Z,4.50
2023-01-04T06:39:50.562Z,4.83
2023-01-04T06:42:36.209Z,5.10
2023-01-04T06:45:03.760Z,4.20
2023-01-04T06:47:30.659Z,4.73
2023-01-04T06:49:57.591Z,4.57
2023-01-04T06:52:24.456Z,7.20
2023-01-04T06:54:51.361Z,3.97
2023-01-04T06:57:18.437Z,3.23
2023-01-04T06:59:45.282Z,3.73
2023-01-04T07:02:15.732Z,3.90
2023-01-04T07:04:43.720Z,3.90
2023-01-04T07:07:11.090Z,4.47
2023-01-04T07:09:38.482Z,3.73
2023-01-04T07:12:06.048Z,3.80
2023-01-04T07:14:32.908Z,5.00
2023-01-04T07:16:59.833Z,3.53
2023-01-04T07:19:26.692Z,3.63
2023-01-04T07:21:53.981Z,5.30
2023-01-04T07:24:26.185Z,3.10
2023-01-04T07:26:56.692Z,3.83
2023-01-04T07:29:23.637Z,3.23
2023-01-04T07:31:52.304Z,3.50
2023-01-04T07:34:21.451Z,4.00
2023-01-04T07:36:48.929Z,4.83
2023-01-04T07:39:18.046Z,2.97
2023-01-04T07:41:45.755Z,4.87
2023-01-04T07:44:13.510Z,3.20
2023-01-04T07:46:41.286Z,2.97
2023-01-04T07:49:16.923Z,3.40
2023-01-04T07:51:45.363Z,3.43
2023-01-04T07:54:12.464Z,3.20
2023-01-04T07:56:39.458Z,2.87
2023-01-04T07:59:08.619Z,2.60
2023-01-04T08:01:38.074Z,2.67
2023-01-04T08:04:09.739Z,2.60
2023-01-04T08:06:37.858Z,2.40
2023-01-04T08:09:06.293Z,2.33
2023-01-04T08:11:34.268Z,2.30
2023-01-04T08:14:01.321Z,2.70
2023-01-04T08:16:34.643Z,1.90
2023-01-04T08:19:07.681Z,2.27
2023-01-04T08:21:36.194Z,2.00
2023-01-04T08:24:03.797Z,2.50
2023-01-04T08:26:31.497Z,2.10
2023-01-04T08:28:58.952Z,3.10
2023-01-04T08:31:29.393Z,2.10
2023-01-04T08:33:57.650Z,2.20
2023-01-04T08:36:30.418Z,2.87
2023-01-04T08:39:01.459Z,1.90
2023-01-04T08:44:21.016Z,1.83
2023-01-04T08:46:48.939Z,1.67
2023-01-04T08:49:16.463Z,1.57
2023-01-04T08:51:43.908Z,1.80
2023-01-04T08:54:11.152Z,1.70
2023-01-04T08:56:38.134Z,1.80
2023-01-04T08:59:06.264Z,1.70
2023-01-04T09:01:34.890Z,3.43
2023-01-04T09:04:02.178Z,1.67
2023-01-04T09:06:29.443Z,1.77
2023-01-04T09:08:57.533Z,1.63
2023-01-04T09:11:25.322Z,1.70
2023-01-04T09:14:07.405Z,1.40
2023-01-04T09:16:36.809Z,1.30
2023-01-04T09:19:04.756Z,1.87
2023-01-04T09:21:32.067Z,1.53
2023-01-04T09:23:59.332Z,1.90
2023-01-04T09:26:26.737Z,1.30
2023-01-04T09:28:55.595Z,1.70
2023-01-04T09:31:25.266Z,1.57
2023-01-04T09:36:39.435Z,2.70
2023-01-04T09:39:06.337Z,2.30
2023-01-04T09:41:38.164Z,1.37
2023-01-04T09:44:21.389Z,1.40
2023-01-04T09:46:52.945Z,2.10
2023-01-04T09:49:32.430Z,2.30
2023-01-04T09:52:19.285Z,1.50
2023-01-04T09:54:57.487Z,1.37
2023-01-04T09:57:29.480Z,1.80
2023-01-04T10:00:13.758Z,1.90
2023-01-04T10:02:44.556Z,3.23
2023-01-04T10:05:20.080Z,1.53
2023-01-04T10:07:47.223Z,2.80
2023-01-04T10:10:21.465Z,1.63
2023-01-04T10:12:59.616Z,1.97
2023-01-04T10:15:26.833Z,1.20
2023-01-04T10:19:36.857Z,1.40
2023-01-04T10:21:29.498Z,2.03
2023-01-04T10:24:13.315Z,1.37
2023-01-04T10:26:47.888Z,1.23
2023-01-04T10:29:40.351Z,1.63
2023-01-04T10:32:13.110Z,1.37
2023-01-04T10:34:42.952Z,1.93
2023-01-04T10:37:26.938Z,1.93
2023-01-04T10:39:56.344Z,4.47
2023-01-04T10:42:48.544Z,1.47
2023-01-04T10:45:23.721Z,1.20
2023-01-04T10:48:12.909Z,1.20
2023-01-04T10:51:03.580Z,2.83
2023-01-04T10:53:51.344Z,1.17
2023-01-04T10:56:32.033Z,1.70
2023-01-04T10:59:18.878Z,1.10
2023-01-04T11:01:57.309Z,1.23
2023-01-04T11:04:56.660Z,1.50
2023-01-04T11:07:40.245Z,1.20
2023-01-04T11:10:18.465Z,1.00
2023-01-04T11:12:46.049Z,1.10
2023-01-04T11:15:13.180Z,2.07
2023-01-04T11:17:41.966Z,1.50
2023-01-04T11:20:09.867Z,2.10
2023-01-04T11:22:39.924Z,2.80
2023-01-04T11:28:42.262Z,1.67
2023-01-04T11:31:12.377Z,1.20
2023-01-04T11:34:00.899Z,1.57
2023-01-04T11:36:43.101Z,1.23
2023-01-04T11:39:24.436Z,1.70
2023-01-04T11:42:21.532Z,1.10
2023-01-04T11:45:18.190Z,1.37
2023-01-04T11:47:50.427Z,1.37
2023-01-04T11:50:42.915Z,2.50
2023-01-04T11:53:35.855Z,1.27
2023-01-04T11:56:16.454Z,1.10
2023-01-04T11:58:45.880Z,3.10
2023-01-04T12:01:24.615Z,5.03
2023-01-04T12:03:52.094Z,1.50
2023-01-04T12:06:32.528Z,1.57
2023-01-04T12:08:59.461Z,1.63
2023-01-04T12:11:35.605Z,2.27
2023-01-04T12:14:03.810Z,2.63
2023-01-04T12:16:49.086Z,1.97
2023-01-04T12:19:18.074Z,1.73
2023-01-04T12:21:57.397Z,1.50
2023-01-04T12:24:31.450Z,1.90
2023-01-04T12:26:59.683Z,2.00
2023-01-04T12:29:59.985Z,1.87
2023-01-04T12:32:26.770Z,1.90
2023-01-04T12:34:54.742Z,2.70
2023-01-04T12:37:51.109Z,1.63
2023-01-04T12:40:46.459Z,1.70
2023-01-04T12:43:16.073Z,1.90
2023-01-04T12:45:48.554Z,2.20
2023-01-04T12:48:53.401Z,3.03
2023-01-04T12:51:33.947Z,2.17
2023-01-04T12:54:04.438Z,2.00
2023-01-04T12:57:22.814Z,2.30
2023-01-04T12:59:55.759Z,2.13
2023-01-04T13:02:39.713Z,2.10
2023-01-04T13:05:54.866Z,2.23
2023-01-04T13:08:15.202Z,3.20
2023-01-04T13:10:47.852Z,2.93
2023-01-04T13:13:20.408Z,2.53
2023-01-04T13:16:20.775Z,2.77
2023-01-04T13:18:51.214Z,2.60
2023-01-04T13:21:28.155Z,2.50
2023-01-04T13:24:14.792Z,2.60
2023-01-04T13:26:48.625Z,2.63
2023-01-04T13:29:25.876Z,2.70
2023-01-04T13:32:02.047Z,2.77
2023-01-04T13:34:36.515Z,2.70
2023-01-04T13:37:12.482Z,2.53
2023-01-04T13:39:45.932Z,3.73
2023-01-04T13:42:23.647Z,2.80
2023-01-04T13:47:47.643Z,2.83
2023-01-04T13:50:26.852Z,2.33
2023-01-04T13:53:05.702Z,2.80
2023-01-04T13:55:39.001Z,3.03
2023-01-04T13:58:15.604Z,3.03
2023-01-04T14:00:51.126Z,2.93
2023-01-04T14:03:21.164Z,2.80
2023-01-04T14:05:51.154Z,3.20
2023-01-04T14:08:41.023Z,3.70
2023-01-04T14:11:40.600Z,3.47
2023-01-04T14:14:44.211Z,3.83
2023-01-04T14:17:17.117Z,3.30
2023-01-04T14:19:48.486Z,3.80
2023-01-04T14:22:21.351Z,3.53
2023-01-04T14:27:37.652Z,3.60
2023-01-04T14:30:19.928Z,3.43
2023-01-04T14:33:00.250Z,5.23
2023-01-04T14:35:28.503Z,3.63
2023-01-04T14:38:02.559Z,3.43
2023-01-04T14:40:33.475Z,3.27
2023-01-04T14:43:00.352Z,4.00
2023-01-04T14:45:27.389Z,3.40
2023-01-04T14:47:54.493Z,5.90
2023-01-04T14:50:21.354Z,3.37
2023-01-04T14:52:52.616Z,2.70
2023-01-04T14:55:20.163Z,2.93
2023-01-04T14:57:47.086Z,3.10
2023-01-04T15:00:19.472Z,2.60
2023-01-04T15:02:51.049Z,2.27
2023-01-04T15:05:21.100Z,2.67
2023-01-04T15:07:48.259Z,2.57
2023-01-04T15:10:29.334Z,2.30
2023-01-04T15:12:59.081Z,2.30
2023-01-04T15:15:26.119Z,1.90
2023-01-04T15:17:53.187Z,2.20
2023-01-04T15:20:20.017Z,2.10
2023-01-04T15:22:46.969Z,2.30
2023-01-04T15:25:14.161Z,2.40
2023-01-04T15:27:42.715Z,2.40
2023-01-04T15:30:11.766Z,2.10
2023-01-04T15:32:40.437Z,2.03
2023-01-04T15:35:08.091Z,2.00
2023-01-04T15:37:34.952Z,1.70
2023-01-04T15:40:03.100Z,2.40
2023-01-04T15:42:49.072Z,1.80
2023-01-04T15:45:16.143Z,2.30
2023-01-04T15:47:43.038Z,1.73
2023-01-04T15:50:10.082Z,4.40
2023-01-04T15:52:36.924Z,1.87
2023-01-04T15:55:04.066Z,1.70
2023-01-04T15:57:30.922Z,2.50
2023-01-04T15:59:57.879Z,2.07
2023-01-04T16:02:25.121Z,2.00
2023-01-04T16:04:52.174Z,1.83
2023-01-04T16:07:19.240Z,2.00
2023-01-04T16:09:46.156Z,2.37
2023-01-04T16:12:31.557Z,1.97
2023-01-04T16:14:58.387Z,2.20
2023-01-04T16:17:26.486Z,2.90
2023-01-04T16:19:53.344Z,2.37
2023-01-04T16:22:20.205Z,2.20
2023-01-04T16:27:35.936Z,2.20
2023-01-04T16:30:04.388Z,1.93
2023-01-04T16:32:31.328Z,2.03
2023-01-04T16:34:58.189Z,2.83
2023-01-04T16:37:29.027Z,4.53
2023-01-04T16:40:11.318Z,2.90
2023-01-04T16:42:39.583Z,3.10
2023-01-04T16:45:07.573Z,3.77
2023-01-04T16:47:44.496Z,2.50
2023-01-04T16:50:12.487Z,2.40
2023-01-04T16:52:40.510Z,2.80
2023-01-04T16:55:08.156Z,2.60
2023-01-04T16:57:35.057Z,2.40
2023-01-04T17:00:02.171Z,2.03
2023-01-04T17:02:29.083Z,1.90
2023-01-04T17:04:59.688Z,1.83
2023-01-04T17:07:33.130Z,2.37
2023-01-04T17:10:01.237Z,1.80
2023-01-04T17:18:02.974Z,4.67
2023-01-04T17:20:29.805Z,2.03
2023-01-04T17:22:56.640Z,3.10
2023-01-04T17:25:23.601Z,2.07
2023-01-04T17:27:50.475Z,1.50
2023-01-04T17:30:17.334Z,2.60
2023-01-04T17:32:44.200Z,1.70
2023-01-04T17:35:11.074Z,1.80
2023-01-04T17:37:37.929Z,1.57
2023-01-04T17:40:05.158Z,1.90
2023-01-04T17:42:35.084Z,1.60
2023-01-04T17:45:01.976Z,1.90
2023-01-04T17:47:28.811Z,1.90
2023-01-04T17:49:55.650Z,2.00
2023-01-04T17:52:30.690Z,1.60
2023-01-04T17:54:58.398Z,1.90
2023-01-04T17:57:25.354Z,3.20
2023-01-04T17:59:52.157Z,2.40
2023-01-04T18:02:19.129Z,1.90
2023-01-04T18:04:46.067Z,1.80
2023-01-04T18:09:44.679Z,4.40
2023-01-04T18:12:11.594Z,1.70
2023-01-04T18:14:38.890Z,1.70
2023-01-04T18:17:06.263Z,1.70
2023-01-04T18:19:33.294Z,1.47
2023-01-04T18:22:00.276Z,1.40
2023-01-04T18:24:36.845Z,2.03
2023-01-04T18:29:52.964Z,1.60
2023-01-04T18:32:20.575Z,2.73
2023-01-04T18:34:47.619Z,2.70
2023-01-04T18:37:16.170Z,1.80
2023-01-04T18:39:43.352Z,2.53
2023-01-04T18:42:10.314Z,2.33
2023-01-04T18:44:43.880Z,1.50
2023-01-04T18:47:12.824Z,1.83
2023-01-04T18:49:39.750Z,1.80
2023-01-04T18:52:06.706Z,1.70
2023-01-04T18:54:33.614Z,1.70
2023-01-04T18:57:01.453Z,3.63
2023-01-04T18:59:32.316Z,2.43
2023-01-04T19:02:01.698Z,2.40
2023-01-04T19:04:30.800Z,1.77
2023-01-04T19:06:57.738Z,3.23
2023-01-04T19:09:25.069Z,1.70
2023-01-04T19:11:52.012Z,2.00
2023-01-04T19:14:18.998Z,2.00
2023-01-04T19:16:46.011Z,1.40
2023-01-04T19:19:12.856Z,1.50
2023-01-04T19:21:39.733Z,1.10
2023-01-04T19:24:07.398Z,1.20
2023-01-04T19:26:34.500Z,1.63
2023-01-04T19:29:01.464Z,1.70
2023-01-04T19:31:28.376Z,1.87
2023-01-04T19:33:55.308Z,2.30
2023-01-04T19:36:22.417Z,2.20
2023-01-04T19:38:49.378Z,2.20
2023-01-04T19:41:21.205Z,0.83
2023-01-04T19:43:48.901Z,0.80
2023-01-04T19:46:16.770Z,2.30
2023-01-04T19:48:44.618Z,1.63
2023-01-04T19:51:16.511Z,1.50
2023-01-04T19:53:44.468Z,1.30
2023-01-04T19:56:13.050Z,1.20
2023-01-04T19:58:40.625Z,1.20
2023-01-04T20:01:07.743Z,1.60
2023-01-04T20:03:34.816Z,1.20
2023-01-04T20:06:03.429Z,1.00
2023-01-04T20:08:30.508Z,0.97
2023-01-04T20:10:58.736Z,1.40
2023-01-04T20:13:27.069Z,4.07
2023-01-04T20:15:53.970Z,2.17
2023-01-04T20:18:21.897Z,2.70
2023-01-04T20:20:48.777Z,1.40
2023-01-04T20:23:15.964Z,1.17
2023-01-04T20:25:45.354Z,2.13
2023-01-04T20:28:12.530Z,1.57
2023-01-04T20:30:40.089Z,1.10
2023-01-04T20:33:07.583Z,1.33
2023-01-04T20:35:38.537Z,1.30
2023-01-04T20:38:05.408Z,1.00
2023-01-04T20:40:32.351Z,0.90
2023-01-04T20:43:17.671Z,2.30
2023-01-04T20:45:46.650Z,1.10
2023-01-04T20:48:14.777Z,1.40
2023-01-04T20:50:42.630Z,1.20
2023-01-04T20:53:09.791Z,1.60
2023-01-04T20:55:41.170Z,1.60
2023-01-04T20:58:11.385Z,1.80
2023-01-04T21:00:39.321Z,2.03
2023-01-04T21:03:09.017Z,1.70
2023-01-04T21:05:45.521Z,2.07
2023-01-04T21:08:13.583Z,1.30
2023-01-04T21:10:42.748Z,1.47
2023-01-04T21:13:11.850Z,1.30
2023-01-04T21:15:39.688Z,1.33
2023-01-04T21:18:07.443Z,1.60
2023-01-04T21:20:34.352Z,1.40
2023-01-04T21:23:01.164Z,1.40
2023-01-04T21:25:28.010Z,1.20
2023-01-04T21:27:54.947Z,1.33
2023-01-04T21:30:21.829Z,0.90
2023-01-04T21:32:48.794Z,1.10
2023-01-04T21:35:15.724Z,1.60
2023-01-04T21:37:42.706Z,1.20
2023-01-04T21:40:10.074Z,1.33
2023-01-04T21:42:36.960Z,1.20
2023-01-04T21:45:04.386Z,1.10
2023-01-04T21:47:31.925Z,1.33
2023-01-04T21:49:59.151Z,1.10
2023-01-04T21:52:26.207Z,1.00
2023-01-04T21:54:53.216Z,1.07
2023-01-04T21:57:20.139Z,1.00
2023-01-04T21:59:47.204Z,1.10
2023-01-04T22:02:18.504Z,1.33
2023-01-04T22:04:46.380Z,0.90
2023-01-04T22:07:13.671Z,1.07
2023-01-04T22:09:40.563Z,1.10
2023-01-04T22:12:07.729Z,1.00
2023-01-04T22:14:35.334Z,1.10
2023-01-04T22:17:02.357Z,1.00
2023-01-04T22:19:29.262Z,1.27
2023-01-04T22:21:56.105Z,1.00
2023-01-04T22:24:23.335Z,1.10
2023-01-04T22:26:50.789Z,0.80
2023-01-04T22:29:18.707Z,1.90
2023-01-04T22:31:45.617Z,1.17
2023-01-04T22:34:12.889Z,0.90
2023-01-04T22:36:39.745Z,0.90
2023-01-04T22:39:07.099Z,0.80
2023-01-04T22:41:34.303Z,0.90
2023-01-04T22:44:03.669Z,0.90
2023-01-04T22:46:32.413Z,1.00
2023-01-04T22:49:00.564Z,0.90
2023-01-04T22:51:29.136Z,1.00
2023-01-04T22:53:59.835Z,0.80
2023-01-04T22:56:27.685Z,1.20
2023-01-04T22:58:56.166Z,0.80
2023-01-04T23:01:29.443Z,1.20
2023-01-04T23:03:58.299Z,0.90
2023-01-04T23:06:26.560Z,1.50
2023-01-04T23:09:05.282Z,1.20
2023-01-04T23:11:33.537Z,3.50
2023-01-04T23:14:03.278Z,1.20
2023-01-04T23:16:33.040Z,1.80
2023-01-04T23:19:02.006Z,5.40
2023-01-04T23:21:29.692Z,1.40
2023-01-04T23:23:56.662Z,1.50
2023-01-04T23:26:25.810Z,1.57
2023-01-04T23:28:52.937Z,1.50
2023-01-04T23:31:23.172Z,1.10
2023-01-04T23:33:54.963Z,1.80
2023-01-04T23:36:27.959Z,1.53
2023-01-04T23:38:57.396Z,1.20
2023-01-04T23:41:43.542Z,1.30
2023-01-04T23:44:19.644Z,1.33
2023-01-04T23:46:52.170Z,1.00
2023-01-04T23:49:19.065Z,1.30
2023-01-04T23:51:46.010Z,1.10
2023-01-04T23:54:12.937Z,0.97
2023-01-04T23:56:41.056Z,0.93
2023-01-04T23:59:08.514Z,1.27
